createdAt,value
2023-12-08T00:01:21.635Z,40.70
2023-12-08T00:03:48.870Z,40.20
2023-12-08T00:06:16.164Z,44.85
2023-12-08T00:08:43.737Z,44.28
2023-12-08T00:11:12.681Z,40.40
2023-12-08T00:13:40.092Z,43.33
2023-12-08T00:16:07.530Z,42.22
2023-12-08T00:18:34.942Z,40.30
2023-12-08T00:21:02.394Z,48.28
2023-12-08T00:23:29.769Z,52.25
2023-12-08T00:25:57.174Z,46.63
2023-12-08T00:28:24.374Z,45.35
2023-12-08T00:30:52.055Z,35.67
2023-12-08T00:33:19.825Z,28.60
2023-12-08T00:35:49.598Z,39.92
2023-12-08T00:38:17.394Z,46.50
2023-12-08T00:40:44.694Z,45.63
2023-12-08T00:43:12.059Z,40.53
2023-12-08T00:45:39.257Z,38.25
2023-12-08T00:48:07.004Z,45.05
2023-12-08T00:50:34.397Z,40.53
2023-12-08T00:53:01.576Z,40.40
2023-12-08T00:55:28.871Z,44.50
2023-12-08T00:57:56.516Z,44.65
2023-12-08T01:00:24.167Z,42.80
2023-12-08T01:02:51.643Z,35.80
2023-12-08T01:05:20.746Z,34.90
2023-12-08T01:07:50.001Z,38.15
2023-12-08T01:10:17.263Z,34.20
2023-12-08T01:12:45.025Z,34.88
2023-12-08T01:15:12.417Z,26.90
2023-12-08T01:17:42.282Z,29.27
2023-12-08T01:20:11.008Z,28.83
2023-12-08T01:22:39.172Z,30.58
2023-12-08T01:25:07.720Z,21.02
2023-12-08T01:27:35.190Z,25.70
2023-12-08T01:30:03.088Z,27.15
2023-12-08T01:32:30.889Z,18.45
2023-12-08T01:34:58.334Z,17.40
2023-12-08T01:37:26.520Z,21.27
2023-12-08T01:39:54.020Z,23.30
2023-12-08T01:42:21.513Z,28.98
2023-12-08T01:44:48.743Z,39.95
2023-12-08T01:47:16.869Z,43.78
2023-12-08T01:49:44.419Z,44.30
2023-12-08T01:52:18.363Z,42.75
2023-12-08T01:54:45.692Z,44.63
2023-12-08T01:57:13.135Z,43.50
2023-12-08T01:59:40.694Z,42.40
2023-12-08T02:02:08.442Z,40.88
2023-12-08T02:04:35.778Z,43.08
2023-12-08T02:07:03.692Z,43.35
2023-12-08T02:09:30.986Z,42.78
2023-12-08T02:11:58.415Z,44.22
2023-12-08T02:14:26.138Z,44.10
2023-12-08T02:17:04.241Z,43.97
2023-12-08T02:19:32.510Z,42.25
2023-12-08T02:21:59.834Z,41.60
2023-12-08T02:24:27.088Z,41.60
2023-12-08T02:26:54.459Z,40.63
2023-12-08T02:29:21.898Z,39.90
2023-12-08T02:32:21.401Z,41.38
2023-12-08T02:34:50.377Z,39.80
2023-12-08T02:37:19.972Z,35.97
2023-12-08T02:39:50.004Z,34.13
2023-12-08T02:42:18.735Z,33.33
2023-12-08T02:44:45.965Z,33.65
2023-12-08T02:47:13.336Z,32.47
2023-12-08T02:49:40.642Z,33.47
2023-12-08T02:52:07.911Z,32.88
2023-12-08T02:54:35.272Z,33.25
2023-12-08T02:57:02.556Z,31.20
2023-12-08T02:59:29.878Z,32.25
2023-12-08T03:01:57.264Z,32.47
2023-12-08T03:04:24.531Z,31.00
2023-12-08T03:06:51.745Z,32.70
2023-12-08T03:09:19.040Z,32.47
2023-12-08T03:11:46.264Z,32.90
2023-12-08T03:14:13.648Z,30.60
2023-12-08T03:16:40.834Z,30.45
2023-12-08T03:19:08.135Z,31.52
2023-12-08T03:21:35.459Z,31.50
2023-12-08T03:24:03.155Z,29.42
2023-12-08T03:26:30.798Z,30.35
2023-12-08T03:28:58.405Z,30.40
2023-12-08T03:31:27.042Z,30.42
2023-12-08T03:33:55.185Z,29.55
2023-12-08T03:36:22.580Z,29.10
2023-12-08T03:38:50.413Z,30.77
2023-12-08T03:41:17.913Z,30.77
2023-12-08T03:43:46.333Z,29.92
2023-12-08T03:46:13.541Z,29.80
2023-12-08T03:48:41.345Z,30.20
2023-12-08T03:51:09.053Z,29.10
2023-12-08T03:53:36.974Z,27.90
2023-12-08T03:56:04.632Z,29.88
2023-12-08T03:58:32.523Z,30.08
2023-12-08T04:01:00.174Z,26.98
2023-12-08T04:03:27.990Z,27.42
2023-12-08T04:05:55.361Z,27.40
2023-12-08T04:08:23.243Z,29.25
2023-12-08T04:10:50.648Z,32.97
2023-12-08T04:13:18.140Z,31.27
2023-12-08T04:15:45.318Z,29.73
2023-12-08T04:18:12.955Z,28.23
2023-12-08T04:20:40.301Z,26.23
2023-12-08T04:23:07.792Z,27.13
2023-12-08T04:25:35.738Z,29.27
2023-12-08T04:28:04.971Z,26.90
2023-12-08T04:30:33.054Z,27.17
2023-12-08T04:33:00.516Z,26.20
2023-12-08T04:35:27.855Z,26.52
2023-12-08T04:37:55.118Z,27.70
2023-12-08T04:40:22.438Z,26.67
2023-12-08T04:42:49.741Z,26.15
2023-12-08T04:45:17.371Z,25.77
2023-12-08T04:47:44.846Z,26.17
2023-12-08T04:50:12.242Z,24.85
2023-12-08T04:52:39.505Z,25.03
2023-12-08T04:55:07.090Z,26.80
2023-12-08T04:57:34.589Z,27.48
2023-12-08T05:00:02.195Z,28.17
2023-12-08T05:02:30.505Z,29.75
2023-12-08T05:04:57.768Z,29.92
2023-12-08T05:07:25.474Z,29.90
2023-12-08T05:09:53.386Z,30.00
2023-12-08T05:12:20.973Z,28.95
2023-12-08T05:14:48.151Z,27.55
2023-12-08T05:17:15.888Z,26.77
2023-12-08T05:19:43.090Z,25.33
2023-12-08T05:22:10.388Z,22.70
2023-12-08T05:24:37.644Z,24.90
2023-12-08T05:27:05.502Z,24.00
2023-12-08T05:29:32.704Z,23.52
2023-12-08T05:31:59.972Z,24.13
2023-12-08T05:34:27.308Z,22.38
2023-12-08T05:36:55.050Z,23.52
2023-12-08T05:39:22.280Z,22.42
2023-12-08T05:41:49.600Z,22.77
2023-12-08T05:44:17.377Z,21.95
2023-12-08T05:46:44.586Z,21.30
2023-12-08T05:49:12.040Z,20.90
2023-12-08T05:51:39.296Z,20.52
2023-12-08T05:54:06.646Z,21.30
2023-12-08T05:56:34.081Z,21.33
2023-12-08T05:59:01.440Z,20.73
2023-12-08T06:01:29.941Z,20.70
2023-12-08T06:03:57.230Z,22.45
2023-12-08T06:06:25.583Z,23.43
2023-12-08T06:08:52.942Z,25.17
2023-12-08T06:11:20.216Z,22.65
2023-12-08T06:13:47.549Z,21.80
2023-12-08T06:16:14.714Z,21.58
2023-12-08T06:18:42.353Z,20.60
2023-12-08T06:21:09.643Z,21.13
2023-12-08T06:23:37.004Z,21.25
2023-12-08T06:26:04.509Z,21.40
2023-12-08T06:28:31.756Z,23.13
2023-12-08T06:30:59.027Z,24.00
2023-12-08T06:33:26.495Z,26.23
2023-12-08T06:35:54.061Z,22.30
2023-12-08T06:38:21.405Z,24.80
2023-12-08T06:40:48.682Z,25.92
2023-12-08T06:43:16.545Z,26.20
2023-12-08T06:45:43.796Z,21.95
2023-12-08T06:48:11.345Z,23.52
2023-12-08T06:50:38.698Z,24.45
2023-12-08T06:53:06.059Z,17.88
2023-12-08T06:55:33.418Z,21.55
2023-12-08T06:58:00.950Z,21.08
2023-12-08T07:00:28.259Z,32.85
2023-12-08T07:02:55.544Z,26.80
2023-12-08T07:05:23.163Z,27.98
2023-12-08T07:07:51.196Z,20.10
2023-12-08T07:10:18.718Z,18.70
2023-12-08T07:12:45.946Z,16.97
2023-12-08T07:15:13.713Z,16.48
2023-12-08T07:17:41.183Z,20.58
2023-12-08T07:20:12.091Z,23.98
2023-12-08T07:22:39.722Z,24.83
2023-12-08T07:25:10.379Z,25.92
2023-12-08T07:27:38.235Z,26.35
2023-12-08T07:30:06.575Z,26.17
2023-12-08T07:32:33.874Z,25.48
2023-12-08T07:35:01.189Z,23.20
2023-12-08T07:37:29.174Z,21.52
2023-12-08T07:39:56.611Z,22.02
2023-12-08T07:42:23.943Z,23.02
2023-12-08T07:44:54.463Z,22.92
2023-12-08T07:47:22.075Z,22.42
2023-12-08T07:49:49.434Z,22.45
2023-12-08T07:52:17.045Z,22.00
2023-12-08T07:54:44.402Z,21.85
2023-12-08T07:57:11.749Z,22.15
2023-12-08T07:59:39.163Z,21.83
2023-12-08T08:02:06.563Z,21.52
2023-12-08T08:04:33.833Z,21.88
2023-12-08T08:07:01.208Z,22.08
2023-12-08T08:09:28.549Z,25.20
2023-12-08T08:11:55.787Z,23.50
2023-12-08T08:14:23.043Z,22.98
2023-12-08T08:16:50.365Z,22.70
2023-12-08T08:19:18.154Z,22.13
2023-12-08T08:22:26.653Z,21.50
2023-12-08T08:24:33.867Z,22.17
2023-12-08T08:27:02.313Z,22.45
2023-12-08T08:29:29.803Z,27.05
2023-12-08T08:31:57.177Z,26.33
2023-12-08T08:34:24.821Z,23.77
2023-12-08T08:36:52.256Z,22.58
2023-12-08T08:39:20.308Z,22.98
2023-12-08T08:41:48.040Z,24.02
2023-12-08T08:44:15.784Z,25.10
2023-12-08T08:46:43.310Z,25.63
2023-12-08T08:49:12.014Z,25.35
2023-12-08T08:51:39.913Z,24.27
2023-12-08T08:54:07.641Z,25.98
2023-12-08T08:56:35.337Z,27.77
2023-12-08T08:59:04.657Z,27.25
2023-12-08T09:01:32.365Z,28.17
2023-12-08T09:03:59.763Z,27.25
2023-12-08T09:06:27.642Z,29.58
2023-12-08T09:08:54.945Z,29.80
2023-12-08T09:11:23.521Z,29.10
2023-12-08T09:13:51.227Z,29.60
2023-12-08T09:16:18.384Z,32.40
2023-12-08T09:18:46.136Z,33.22
2023-12-08T09:21:13.638Z,32.78
2023-12-08T09:23:41.186Z,31.17
2023-12-08T09:26:08.596Z,30.10
2023-12-08T09:28:36.229Z,29.20
2023-12-08T09:31:03.503Z,30.25
2023-12-08T09:33:31.265Z,32.08
2023-12-08T09:35:59.898Z,31.92
2023-12-08T09:38:33.323Z,28.45
2023-12-08T09:41:05.944Z,24.92
2023-12-08T09:43:48.716Z,19.23
2023-12-08T09:46:17.273Z,21.30
2023-12-08T09:48:47.392Z,21.37
2023-12-08T09:51:16.741Z,21.52
2023-12-08T09:53:44.874Z,18.38
2023-12-08T09:56:12.764Z,20.70
2023-12-08T09:58:42.789Z,20.17
2023-12-08T10:01:14.805Z,17.70
2023-12-08T10:03:42.790Z,17.77
2023-12-08T10:06:11.505Z,17.77
2023-12-08T10:08:39.030Z,20.55
2023-12-08T10:11:09.170Z,19.85
2023-12-08T10:13:37.223Z,23.40
2023-12-08T10:16:04.878Z,29.45
2023-12-08T10:18:32.332Z,26.48
2023-12-08T10:21:17.667Z,22.77
2023-12-08T10:23:49.177Z,23.90
2023-12-08T10:26:18.405Z,24.50
2023-12-08T10:28:46.120Z,21.38
2023-12-08T10:31:13.443Z,21.63
2023-12-08T10:33:43.842Z,22.00
2023-12-08T10:36:11.933Z,20.92
2023-12-08T10:38:41.337Z,19.90
2023-12-08T10:41:14.729Z,20.50
2023-12-08T10:43:42.602Z,21.52
2023-12-08T10:46:10.288Z,21.63
2023-12-08T10:48:39.376Z,19.90
2023-12-08T10:51:07.445Z,19.60
2023-12-08T10:53:34.964Z,18.00
2023-12-08T10:56:07.848Z,15.05
2023-12-08T10:58:36.891Z,14.70
2023-12-08T11:01:14.128Z,14.05
2023-12-08T11:03:57.625Z,14.70
2023-12-08T11:06:34.591Z,12.82
2023-12-08T11:09:08.050Z,7.93
2023-12-08T11:11:39.367Z,8.18
2023-12-08T11:14:15.171Z,8.57
2023-12-08T11:16:52.120Z,7.97
2023-12-08T11:19:23.944Z,8.23
2023-12-08T11:21:54.097Z,6.30
2023-12-08T11:24:23.280Z,6.50
2023-12-08T11:27:08.901Z,6.18
2023-12-08T11:29:51.754Z,5.78
2023-12-08T11:32:29.445Z,4.88
2023-12-08T11:35:01.941Z,4.33
2023-12-08T11:37:30.684Z,6.18
2023-12-08T11:40:02.895Z,7.47
2023-12-08T11:42:30.555Z,5.45
2023-12-08T11:44:59.821Z,5.13
2023-12-08T11:47:31.650Z,3.53
2023-12-08T11:49:59.718Z,4.32
2023-12-08T11:52:29.665Z,4.25
2023-12-08T11:55:28.554Z,5.70
2023-12-08T11:58:00.923Z,4.15
2023-12-08T12:00:29.901Z,5.43
2023-12-08T12:03:00.129Z,4.55
2023-12-08T12:05:28.713Z,5.15
2023-12-08T12:07:57.929Z,7.70
2023-12-08T12:10:26.917Z,8.13
2023-12-08T12:13:05.052Z,5.47
2023-12-08T12:15:35.431Z,6.38
2023-12-08T12:18:04.577Z,5.13
2023-12-08T12:20:33.654Z,5.73
2023-12-08T12:23:01.117Z,5.03
2023-12-08T12:25:28.463Z,4.67
2023-12-08T12:27:56.108Z,3.23
2023-12-08T12:30:24.249Z,3.85
2023-12-08T12:32:52.320Z,4.53
2023-12-08T12:35:19.825Z,6.03
2023-12-08T12:37:47.915Z,5.50
2023-12-08T12:40:15.224Z,6.07
2023-12-08T12:42:47.506Z,5.47
2023-12-08T12:45:40.805Z,5.03
2023-12-08T12:48:10.505Z,4.63
2023-12-08T12:50:53.696Z,3.67
2023-12-08T12:53:21.161Z,3.42
2023-12-08T12:55:51.189Z,4.75
2023-12-08T12:58:27.366Z,4.90
2023-12-08T13:00:56.048Z,4.40
2023-12-08T13:03:24.679Z,4.80
2023-12-08T13:05:58.023Z,4.65
2023-12-08T13:08:25.739Z,4.97
2023-12-08T13:10:55.335Z,6.07
2023-12-08T13:13:22.696Z,5.90
2023-12-08T13:15:50.523Z,10.73
2023-12-08T13:18:18.078Z,8.68
2023-12-08T13:20:45.439Z,11.70
2023-12-08T13:23:12.741Z,16.55
2023-12-08T13:25:40.258Z,19.45
2023-12-08T13:28:07.554Z,22.77
2023-12-08T13:30:34.911Z,22.98
2023-12-08T13:33:04.888Z,20.88
2023-12-08T13:35:34.482Z,18.60
2023-12-08T13:38:01.716Z,18.23
2023-12-08T13:40:30.769Z,18.23
2023-12-08T13:42:58.457Z,19.08
2023-12-08T13:45:25.880Z,18.95
2023-12-08T13:47:53.403Z,17.77
2023-12-08T13:50:20.837Z,16.33
2023-12-08T13:52:48.053Z,15.35
2023-12-08T13:55:15.391Z,16.67
2023-12-08T13:57:42.688Z,15.50
2023-12-08T14:00:10.763Z,16.60
2023-12-08T14:02:38.637Z,16.77
2023-12-08T14:05:06.305Z,17.05
2023-12-08T14:07:33.581Z,16.88
2023-12-08T14:10:00.955Z,15.80
2023-12-08T14:12:28.673Z,15.87
2023-12-08T14:14:56.068Z,16.23
2023-12-08T14:17:23.346Z,14.98
2023-12-08T14:19:50.618Z,13.25
2023-12-08T14:22:18.250Z,14.65
2023-12-08T14:24:45.426Z,13.25
2023-12-08T14:27:12.802Z,11.60
2023-12-08T14:29:40.292Z,11.93
2023-12-08T14:32:07.813Z,11.93
2023-12-08T14:34:35.500Z,12.13
2023-12-08T14:37:02.850Z,11.50
2023-12-08T14:39:30.882Z,11.82
2023-12-08T14:41:58.409Z,12.45
2023-12-08T14:44:25.693Z,13.85
2023-12-08T14:46:52.930Z,13.90
2023-12-08T14:49:20.617Z,19.33
2023-12-08T14:51:48.154Z,19.85
2023-12-08T14:54:22.498Z,23.58
2023-12-08T14:56:53.614Z,22.27
2023-12-08T14:59:20.847Z,25.40
2023-12-08T15:01:48.285Z,22.33
2023-12-08T15:04:15.850Z,24.87
2023-12-08T15:06:43.341Z,21.65
2023-12-08T15:09:10.709Z,20.67
2023-12-08T15:11:38.063Z,22.23
2023-12-08T15:14:05.304Z,22.77
2023-12-08T15:16:32.568Z,20.47
2023-12-08T15:19:00.292Z,22.50
2023-12-08T15:21:29.630Z,21.73
2023-12-08T15:23:58.704Z,22.65
2023-12-08T15:26:27.263Z,22.33
2023-12-08T15:28:54.522Z,24.20
2023-12-08T15:31:21.838Z,22.65
2023-12-08T15:33:49.343Z,25.95
2023-12-08T15:36:16.725Z,32.58
2023-12-08T15:38:44.905Z,26.77
2023-12-08T15:41:12.500Z,24.73
2023-12-08T15:43:40.852Z,23.95
2023-12-08T15:46:08.504Z,21.47
2023-12-08T15:48:36.541Z,23.63
2023-12-08T15:51:15.229Z,24.40
2023-12-08T15:53:46.273Z,24.85
2023-12-08T15:56:13.685Z,23.83
2023-12-08T15:58:42.662Z,24.23
2023-12-08T16:01:09.876Z,24.65
2023-12-08T16:03:37.208Z,25.02
2023-12-08T16:06:04.778Z,26.95
2023-12-08T16:08:32.379Z,25.33
2023-12-08T16:10:59.603Z,25.95
2023-12-08T16:13:26.882Z,27.67
2023-12-08T16:15:54.119Z,26.27
2023-12-08T16:18:21.439Z,28.73
2023-12-08T16:20:49.897Z,28.02
2023-12-08T16:23:18.330Z,28.42
2023-12-08T16:25:46.754Z,28.48
2023-12-08T16:28:15.476Z,29.13
2023-12-08T16:30:46.472Z,27.40
2023-12-08T16:33:13.873Z,28.35
2023-12-08T16:35:41.392Z,28.25
2023-12-08T16:38:08.608Z,28.02
2023-12-08T16:40:35.814Z,29.05
2023-12-08T16:43:04.616Z,29.48
2023-12-08T16:45:31.753Z,27.88
2023-12-08T16:48:01.399Z,28.92
2023-12-08T16:50:28.715Z,27.38
2023-12-08T16:52:55.962Z,26.95
2023-12-08T16:55:23.184Z,26.38
2023-12-08T16:57:50.429Z,26.30
2023-12-08T17:00:18.069Z,28.20
2023-12-08T17:02:45.740Z,28.70
2023-12-08T17:05:13.065Z,26.00
2023-12-08T17:07:41.373Z,26.75
2023-12-08T17:10:09.116Z,24.05
2023-12-08T17:12:36.276Z,24.53
2023-12-08T17:15:05.379Z,25.53
2023-12-08T17:17:32.795Z,25.55
2023-12-08T17:20:00.148Z,25.38
2023-12-08T17:22:30.001Z,26.15
2023-12-08T17:24:57.717Z,24.63
2023-12-08T17:27:25.249Z,21.42
2023-12-08T17:29:53.261Z,24.50
2023-12-08T17:32:22.370Z,25.98
2023-12-08T17:34:51.082Z,26.88
2023-12-08T17:37:18.546Z,27.25
2023-12-08T17:39:45.736Z,26.02
2023-12-08T17:42:13.455Z,24.13
2023-12-08T17:44:41.138Z,23.70
2023-12-08T17:47:09.578Z,24.25
2023-12-08T17:49:36.879Z,25.00
2023-12-08T17:52:05.705Z,24.95
2023-12-08T17:54:33.075Z,25.92
2023-12-08T17:57:00.897Z,26.83
2023-12-08T17:59:28.301Z,26.83
2023-12-08T18:01:55.919Z,27.30
2023-12-08T18:04:23.482Z,26.50
2023-12-08T18:06:51.062Z,24.42
2023-12-08T18:09:18.320Z,28.25
2023-12-08T18:11:45.980Z,32.25
2023-12-08T18:14:13.155Z,28.60
2023-12-08T18:16:48.412Z,30.55
2023-12-08T18:19:18.305Z,37.70
2023-12-08T18:21:46.114Z,33.40
2023-12-08T18:24:17.652Z,31.50
2023-12-08T18:26:45.598Z,28.23
2023-12-08T18:29:13.092Z,25.92
2023-12-08T18:31:41.123Z,27.13
2023-12-08T18:34:10.004Z,29.05
2023-12-08T18:36:38.827Z,29.17
2023-12-08T18:39:08.017Z,28.65
2023-12-08T18:41:35.973Z,28.63
2023-12-08T18:44:03.375Z,29.00
2023-12-08T18:46:31.129Z,28.67
2023-12-08T18:49:02.940Z,27.75
2023-12-08T18:51:31.240Z,26.77
2023-12-08T18:53:59.093Z,26.80
2023-12-08T18:56:26.939Z,31.50
2023-12-08T18:58:57.494Z,32.55
2023-12-08T19:01:25.340Z,38.28
2023-12-08T19:03:53.020Z,47.28
2023-12-08T19:06:21.810Z,47.45
2023-12-08T19:08:49.258Z,53.95
2023-12-08T19:11:16.986Z,52.58
2023-12-08T19:13:48.036Z,47.67
2023-12-08T19:16:15.487Z,43.45
2023-12-08T19:18:42.745Z,40.65
2023-12-08T19:21:12.012Z,53.03
2023-12-08T19:23:39.237Z,50.20
2023-12-08T19:26:08.162Z,35.22
2023-12-08T19:28:35.859Z,54.08
2023-12-08T19:31:05.224Z,73.32
2023-12-08T19:33:32.632Z,75.32
2023-12-08T19:36:00.569Z,80.27
2023-12-08T19:38:27.767Z,92.32
2023-12-08T19:40:55.204Z,102.05
2023-12-08T19:43:22.583Z,100.78
2023-12-08T19:45:50.176Z,120.75
2023-12-08T19:48:17.837Z,120.68
2023-12-08T19:50:45.739Z,82.30
2023-12-08T19:53:13.027Z,62.60
2023-12-08T19:55:40.488Z,42.03
2023-12-08T19:58:13.365Z,41.75
2023-12-08T20:00:41.040Z,49.47
2023-12-08T20:03:09.310Z,52.35
2023-12-08T20:05:38.256Z,42.53
2023-12-08T20:08:06.045Z,40.05
2023-12-08T20:10:33.486Z,45.43
2023-12-08T20:13:01.099Z,38.33
2023-12-08T20:15:29.012Z,44.22
2023-12-08T20:17:56.893Z,42.33
2023-12-08T20:20:24.762Z,47.42
2023-12-08T20:22:51.972Z,40.03
2023-12-08T20:25:19.787Z,32.90
2023-12-08T20:27:47.996Z,36.95
2023-12-08T20:30:16.428Z,37.40
2023-12-08T20:32:44.071Z,39.95
2023-12-08T20:35:11.788Z,39.00
2023-12-08T20:37:39.190Z,39.38
2023-12-08T20:40:07.020Z,39.58
2023-12-08T20:42:34.734Z,41.28
2023-12-08T20:45:02.055Z,42.97
2023-12-08T20:47:29.910Z,45.22
2023-12-08T20:50:01.717Z,47.72
2023-12-08T20:52:32.352Z,44.08
2023-12-08T20:54:59.578Z,42.35
2023-12-08T20:57:27.728Z,39.65
2023-12-08T20:59:55.131Z,36.08
2023-12-08T21:02:22.750Z,31.58
2023-12-08T21:04:50.095Z,29.58
2023-12-08T21:07:17.688Z,27.85
2023-12-08T21:09:44.948Z,26.02
2023-12-08T21:12:13.061Z,20.63
2023-12-08T21:14:40.593Z,22.55
2023-12-08T21:17:08.056Z,21.00
2023-12-08T21:19:35.988Z,21.70
2023-12-08T21:22:05.227Z,18.10
2023-12-08T21:24:33.098Z,13.47
2023-12-08T21:27:00.461Z,12.57
2023-12-08T21:29:27.701Z,13.13
2023-12-08T21:31:55.001Z,13.73
2023-12-08T21:34:22.294Z,13.63
2023-12-08T21:36:49.519Z,11.50
2023-12-08T21:39:16.696Z,11.57
2023-12-08T21:41:44.169Z,10.93
2023-12-08T21:44:12.184Z,10.47
2023-12-08T21:46:39.330Z,10.88
2023-12-08T21:49:06.755Z,11.45
2023-12-08T21:51:34.328Z,11.82
2023-12-08T21:54:01.678Z,12.23
2023-12-08T21:56:31.197Z,11.27
2023-12-08T21:59:02.251Z,12.80
2023-12-08T22:01:29.697Z,11.40
2023-12-08T22:03:58.781Z,10.55
2023-12-08T22:06:26.998Z,11.20
2023-12-08T22:08:54.615Z,11.68
2023-12-08T22:11:22.061Z,13.90
2023-12-08T22:13:49.262Z,14.00
2023-12-08T22:16:17.032Z,13.98
2023-12-08T22:18:44.440Z,14.10
2023-12-08T22:21:13.824Z,13.75
2023-12-08T22:23:41.356Z,14.65
2023-12-08T22:26:08.612Z,15.27
2023-12-08T22:28:35.804Z,16.27
2023-12-08T22:31:03.293Z,17.23
2023-12-08T22:33:33.750Z,17.10
2023-12-08T22:36:02.214Z,14.80
2023-12-08T22:38:29.509Z,14.18
2023-12-08T22:40:56.797Z,13.87
2023-12-08T22:43:24.308Z,16.10
2023-12-08T22:45:51.635Z,11.63
2023-12-08T22:48:19.009Z,11.63
2023-12-08T22:50:50.279Z,11.32
2023-12-08T22:53:19.421Z,11.90
2023-12-08T22:55:46.628Z,11.70
2023-12-08T22:58:15.186Z,10.80
2023-12-08T23:00:42.575Z,10.32
2023-12-08T23:03:13.951Z,10.60
2023-12-08T23:05:41.735Z,9.77
2023-12-08T23:08:09.145Z,10.57
2023-12-08T23:10:36.312Z,11.63
2023-12-08T23:13:03.645Z,13.80
2023-12-08T23:15:30.843Z,15.23
2023-12-08T23:17:58.372Z,13.82
2023-12-08T23:20:25.769Z,14.45
2023-12-08T23:22:53.150Z,13.40
2023-12-08T23:25:20.342Z,11.82
2023-12-08T23:27:47.853Z,13.18
2023-12-08T23:30:15.575Z,11.32
2023-12-08T23:32:44.885Z,12.00
2023-12-08T23:35:12.256Z,12.27
2023-12-08T23:37:39.528Z,13.65
2023-12-08T23:40:07.737Z,10.77
2023-12-08T23:42:35.119Z,11.93
2023-12-08T23:45:02.543Z,10.85
2023-12-08T23:47:29.895Z,11.13
2023-12-08T23:49:57.236Z,11.98
2023-12-08T23:52:24.761Z,12.60
2023-12-08T23:54:52.083Z,12.70
2023-12-08T23:57:19.446Z,12.27
2023-12-08T23:59:46.722Z,14.00
